createdAt,value
2023-11-09T00:01:19.681Z,1.40
2023-11-09T00:03:46.700Z,1.50
2023-11-09T00:06:13.756Z,1.60
2023-11-09T00:08:44.301Z,1.45
2023-11-09T00:11:11.735Z,1.42
2023-11-09T00:13:38.816Z,1.40
2023-11-09T00:16:06.680Z,1.42
2023-11-09T00:18:33.749Z,1.40
2023-11-09T00:21:03.361Z,1.35
2023-11-09T00:23:32.594Z,1.25
2023-11-09T00:26:02.583Z,1.35
2023-11-09T00:28:29.739Z,1.40
2023-11-09T00:30:56.842Z,1.33
2023-11-09T00:33:24.048Z,1.23
2023-11-09T00:35:51.125Z,1.13
2023-11-09T00:38:18.332Z,1.60
2023-11-09T00:40:45.426Z,1.27
2023-11-09T00:43:13.221Z,1.15
2023-11-09T00:45:40.448Z,1.10
2023-11-09T00:48:07.580Z,1.10
2023-11-09T00:50:34.716Z,1.30
2023-11-09T00:53:02.723Z,1.25
2023-11-09T00:55:29.770Z,1.15
2023-11-09T00:57:57.133Z,1.10
2023-11-09T01:00:24.260Z,1.00
2023-11-09T01:02:52.312Z,0.90
2023-11-09T01:05:19.522Z,1.05
2023-11-09T01:07:47.844Z,1.10
2023-11-09T01:10:15.100Z,1.10
2023-11-09T01:12:42.095Z,1.15
2023-11-09T01:15:09.564Z,1.30
2023-11-09T01:17:39.948Z,1.20
2023-11-09T01:20:07.890Z,1.05
2023-11-09T01:22:35.397Z,1.45
2023-11-09T01:25:02.854Z,1.02
2023-11-09T01:27:29.945Z,1.00
2023-11-09T01:29:57.069Z,1.38
2023-11-09T01:32:24.172Z,1.20
2023-11-09T01:34:51.264Z,1.20
2023-11-09T01:37:18.376Z,1.20
2023-11-09T01:39:46.400Z,1.00
2023-11-09T01:42:14.431Z,1.10
2023-11-09T01:44:41.707Z,1.10
2023-11-09T01:47:09.072Z,1.10
2023-11-09T01:49:37.299Z,1.20
2023-11-09T01:52:04.892Z,1.40
2023-11-09T01:54:33.803Z,1.05
2023-11-09T01:57:01.068Z,1.05
2023-11-09T01:59:32.181Z,1.10
2023-11-09T02:02:00.615Z,1.00
2023-11-09T02:04:28.276Z,1.10
2023-11-09T02:06:55.517Z,1.10
2023-11-09T02:09:23.302Z,1.05
2023-11-09T02:11:50.960Z,1.00
2023-11-09T02:14:18.848Z,1.33
2023-11-09T02:16:48.264Z,1.10
2023-11-09T02:19:20.759Z,1.20
2023-11-09T02:21:52.391Z,1.05
2023-11-09T02:24:20.749Z,1.08
2023-11-09T02:26:49.802Z,1.30
2023-11-09T02:29:16.889Z,0.90
2023-11-09T02:31:43.992Z,1.10
2023-11-09T02:34:11.413Z,0.90
2023-11-09T02:36:39.630Z,1.10
2023-11-09T02:39:06.680Z,1.17
2023-11-09T02:41:33.797Z,1.00
2023-11-09T02:44:00.862Z,1.00
2023-11-09T02:46:27.958Z,1.08
2023-11-09T02:48:55.201Z,0.98
2023-11-09T02:51:22.439Z,1.13
2023-11-09T02:53:49.558Z,0.85
2023-11-09T02:56:16.943Z,1.13
2023-11-09T02:58:46.972Z,1.10
2023-11-09T03:01:14.109Z,0.88
2023-11-09T03:03:41.445Z,0.90
2023-11-09T03:06:09.552Z,1.10
2023-11-09T03:08:36.622Z,0.90
2023-11-09T03:11:04.153Z,0.80
2023-11-09T03:13:31.229Z,1.20
2023-11-09T03:15:58.301Z,0.98
2023-11-09T03:18:25.547Z,1.10
2023-11-09T03:20:53.061Z,1.10
2023-11-09T03:23:20.347Z,1.02
2023-11-09T03:25:47.400Z,0.88
2023-11-09T03:28:14.562Z,1.20
2023-11-09T03:30:42.273Z,1.00
2023-11-09T03:33:09.386Z,1.23
2023-11-09T03:35:37.760Z,0.95
2023-11-09T03:38:04.823Z,1.00
2023-11-09T03:40:32.070Z,0.90
2023-11-09T03:42:59.204Z,0.70
2023-11-09T03:45:27.024Z,0.85
2023-11-09T03:47:54.870Z,0.80
2023-11-09T03:50:22.164Z,0.80
2023-11-09T03:52:51.462Z,0.80
2023-11-09T03:55:18.826Z,0.93
2023-11-09T03:57:45.938Z,1.20
2023-11-09T04:00:13.763Z,0.95
2023-11-09T04:02:43.597Z,0.80
2023-11-09T04:05:12.481Z,0.70
2023-11-09T04:07:42.605Z,0.80
2023-11-09T04:10:11.001Z,0.70
2023-11-09T04:12:38.405Z,0.70
2023-11-09T04:15:06.626Z,1.00
2023-11-09T04:17:34.318Z,1.00
2023-11-09T04:20:01.706Z,0.85
2023-11-09T04:22:28.996Z,0.93
2023-11-09T04:24:56.145Z,0.90
2023-11-09T04:27:23.148Z,1.00
2023-11-09T04:29:50.491Z,1.05
2023-11-09T04:32:19.431Z,1.15
2023-11-09T04:34:47.035Z,1.30
2023-11-09T04:37:14.850Z,1.48
2023-11-09T04:39:43.962Z,1.60
2023-11-09T04:42:19.423Z,1.30
2023-11-09T04:44:52.083Z,1.40
2023-11-09T04:47:26.244Z,1.58
2023-11-09T04:50:00.205Z,1.60
2023-11-09T04:52:30.977Z,1.80
2023-11-09T04:55:11.625Z,1.80
2023-11-09T04:58:01.866Z,1.50
2023-11-09T05:01:01.246Z,1.88
2023-11-09T05:03:46.752Z,1.88
2023-11-09T05:06:32.302Z,1.85
2023-11-09T05:09:03.665Z,2.00
2023-11-09T05:11:30.696Z,2.20
2023-11-09T05:13:58.280Z,2.03
2023-11-09T05:16:26.551Z,2.30
2023-11-09T05:18:53.595Z,2.05
2023-11-09T05:21:22.077Z,2.38
2023-11-09T05:23:49.148Z,2.10
2023-11-09T05:26:16.497Z,2.50
2023-11-09T05:28:46.177Z,2.28
2023-11-09T05:31:13.389Z,2.60
2023-11-09T05:33:40.529Z,2.80
2023-11-09T05:36:10.807Z,2.70
2023-11-09T05:38:38.651Z,3.03
2023-11-09T05:41:05.709Z,3.33
2023-11-09T05:43:33.113Z,3.08
2023-11-09T05:46:00.533Z,3.50
2023-11-09T05:48:27.832Z,3.60
2023-11-09T05:50:56.715Z,3.65
2023-11-09T05:53:24.098Z,3.40
2023-11-09T05:55:51.139Z,3.30
2023-11-09T05:58:18.549Z,3.45
2023-11-09T06:00:45.701Z,3.55
2023-11-09T06:03:13.158Z,3.58
2023-11-09T06:05:40.568Z,3.72
2023-11-09T06:08:09.397Z,4.20
2023-11-09T06:10:36.540Z,4.22
2023-11-09T06:13:04.884Z,4.97
2023-11-09T06:15:32.833Z,4.78
2023-11-09T06:18:00.278Z,4.82
2023-11-09T06:20:27.594Z,4.82
2023-11-09T06:22:54.604Z,4.65
2023-11-09T06:25:21.876Z,4.57
2023-11-09T06:27:49.058Z,4.03
2023-11-09T06:30:16.069Z,3.45
2023-11-09T06:32:43.587Z,3.33
2023-11-09T06:35:15.252Z,3.42
2023-11-09T06:37:44.170Z,3.95
2023-11-09T06:40:12.710Z,3.60
2023-11-09T06:42:40.834Z,4.00
2023-11-09T06:45:10.302Z,3.78
2023-11-09T06:47:40.120Z,4.43
2023-11-09T06:50:13.522Z,3.92
2023-11-09T06:52:44.040Z,3.25
2023-11-09T06:55:11.799Z,3.85
2023-11-09T06:57:40.899Z,3.35
2023-11-09T07:00:11.385Z,3.20
2023-11-09T07:02:48.812Z,3.13
2023-11-09T07:05:16.527Z,3.35
2023-11-09T07:07:43.986Z,3.05
2023-11-09T07:10:11.302Z,3.30
2023-11-09T07:12:38.893Z,2.83
2023-11-09T07:15:06.749Z,3.05
2023-11-09T07:17:34.007Z,2.40
2023-11-09T07:20:01.763Z,3.00
2023-11-09T07:22:29.391Z,2.65
2023-11-09T07:25:08.401Z,2.88
2023-11-09T07:27:40.250Z,2.63
2023-11-09T07:30:08.344Z,3.13
2023-11-09T07:32:36.344Z,2.80
2023-11-09T07:35:03.771Z,3.03
2023-11-09T07:37:31.462Z,3.28
2023-11-09T07:39:58.661Z,3.10
2023-11-09T07:42:26.261Z,2.70
2023-11-09T07:44:53.444Z,3.15
2023-11-09T07:47:20.526Z,2.63
2023-11-09T07:49:48.421Z,2.75
2023-11-09T07:52:16.117Z,2.95
2023-11-09T07:54:49.765Z,3.13
2023-11-09T07:57:17.101Z,2.75
2023-11-09T07:59:46.505Z,2.90
2023-11-09T08:02:14.255Z,3.00
2023-11-09T08:04:42.377Z,2.95
2023-11-09T08:07:10.188Z,2.95
2023-11-09T08:09:37.640Z,2.85
2023-11-09T08:12:05.315Z,2.58
2023-11-09T08:14:32.952Z,2.45
2023-11-09T08:17:00.028Z,2.78
2023-11-09T08:19:27.535Z,2.88
2023-11-09T08:21:54.819Z,2.78
2023-11-09T08:24:21.828Z,2.60
2023-11-09T08:26:50.113Z,2.60
2023-11-09T08:29:17.156Z,2.63
2023-11-09T08:31:45.244Z,3.17
2023-11-09T08:34:12.703Z,2.97
2023-11-09T08:36:39.984Z,2.83
2023-11-09T08:39:10.508Z,2.88
2023-11-09T08:41:43.100Z,3.20
2023-11-09T08:44:10.700Z,3.42
2023-11-09T08:46:37.947Z,3.55
2023-11-09T08:49:05.639Z,3.05
2023-11-09T08:51:35.468Z,3.35
2023-11-09T08:54:02.879Z,2.78
2023-11-09T08:56:31.184Z,3.03
2023-11-09T08:58:58.385Z,3.38
2023-11-09T09:01:29.414Z,3.20
2023-11-09T09:03:56.505Z,3.00
2023-11-09T09:06:24.316Z,3.20
2023-11-09T09:08:51.522Z,3.20
2023-11-09T09:11:19.616Z,3.28
2023-11-09T09:13:46.678Z,3.58
2023-11-09T09:16:16.881Z,4.28
2023-11-09T09:18:47.686Z,3.67
2023-11-09T09:21:16.634Z,3.95
2023-11-09T09:23:43.788Z,4.15
2023-11-09T09:26:15.589Z,4.43
2023-11-09T09:28:50.102Z,5.35
2023-11-09T09:31:21.919Z,5.10
2023-11-09T09:34:03.632Z,5.65
2023-11-09T09:36:31.007Z,5.47
2023-11-09T09:38:58.253Z,5.05
2023-11-09T09:41:30.135Z,4.80
2023-11-09T09:44:02.629Z,5.47
2023-11-09T09:46:34.570Z,5.13
2023-11-09T09:49:04.386Z,5.40
2023-11-09T09:51:35.290Z,4.72
2023-11-09T09:54:03.887Z,4.55
2023-11-09T09:56:33.360Z,4.70
2023-11-09T09:59:00.953Z,4.70
2023-11-09T10:01:28.626Z,4.78
2023-11-09T10:03:57.043Z,3.88
2023-11-09T10:06:24.083Z,3.78
2023-11-09T10:08:51.156Z,3.65
2023-11-09T10:11:18.602Z,3.92
2023-11-09T10:13:49.072Z,4.03
2023-11-09T10:16:16.396Z,3.53
2023-11-09T10:18:43.696Z,3.78
2023-11-09T10:21:14.010Z,3.83
2023-11-09T10:23:41.797Z,3.80
2023-11-09T10:26:12.990Z,3.83
2023-11-09T10:28:40.287Z,3.60
2023-11-09T10:31:08.964Z,3.72
2023-11-09T10:33:37.090Z,3.38
2023-11-09T10:36:06.385Z,4.00
2023-11-09T10:38:34.759Z,3.90
2023-11-09T10:41:15.525Z,3.65
2023-11-09T10:43:51.622Z,4.10
2023-11-09T10:46:22.147Z,3.97
2023-11-09T10:48:52.143Z,3.50
2023-11-09T10:51:21.039Z,3.72
2023-11-09T10:53:49.712Z,3.42
2023-11-09T10:56:18.069Z,3.88
2023-11-09T10:58:46.714Z,3.50
2023-11-09T11:01:26.517Z,3.65
2023-11-09T11:03:56.128Z,3.10
2023-11-09T11:06:31.285Z,3.55
2023-11-09T11:09:09.800Z,3.78
2023-11-09T11:11:41.581Z,3.40
2023-11-09T11:14:14.126Z,3.65
2023-11-09T11:17:25.469Z,3.75
2023-11-09T11:20:23.285Z,3.75
2023-11-09T11:23:18.989Z,3.17
2023-11-09T11:26:01.334Z,4.18
2023-11-09T11:28:32.305Z,2.90
2023-11-09T11:31:05.883Z,3.50
2023-11-09T11:33:37.511Z,3.80
2023-11-09T11:36:08.766Z,2.88
2023-11-09T11:38:36.565Z,2.97
2023-11-09T11:41:06.943Z,3.55
2023-11-09T11:43:40.130Z,3.38
2023-11-09T11:46:14.131Z,3.15
2023-11-09T11:49:01.898Z,3.65
2023-11-09T11:51:31.702Z,3.42
2023-11-09T11:54:09.459Z,3.60
2023-11-09T11:56:39.455Z,3.22
2023-11-09T11:59:11.039Z,3.25
2023-11-09T12:01:41.454Z,3.10
2023-11-09T12:04:15.171Z,3.78
2023-11-09T12:06:45.779Z,3.75
2023-11-09T12:09:16.448Z,4.22
2023-11-09T12:11:51.308Z,4.07
2023-11-09T12:14:21.271Z,4.25
2023-11-09T12:16:49.490Z,4.50
2023-11-09T12:19:18.287Z,4.93
2023-11-09T12:21:49.106Z,4.35
2023-11-09T12:24:25.695Z,4.25
2023-11-09T12:27:08.156Z,4.53
2023-11-09T12:29:42.444Z,4.10
2023-11-09T12:32:10.941Z,4.30
2023-11-09T12:34:39.351Z,4.25
2023-11-09T12:37:14.893Z,4.00
2023-11-09T12:39:46.853Z,3.88
2023-11-09T12:42:24.104Z,4.15
2023-11-09T12:44:54.178Z,4.07
2023-11-09T12:47:22.792Z,4.22
2023-11-09T12:49:54.747Z,3.88
2023-11-09T12:52:28.325Z,3.70
2023-11-09T12:54:57.147Z,3.83
2023-11-09T12:57:26.482Z,3.53
2023-11-09T12:59:57.082Z,3.80
2023-11-09T13:02:44.723Z,3.80
2023-11-09T13:05:14.679Z,3.72
2023-11-09T13:07:47.835Z,3.47
2023-11-09T13:10:23.291Z,3.15
2023-11-09T13:12:54.811Z,2.97
2023-11-09T13:15:37.677Z,3.15
2023-11-09T13:18:09.912Z,3.55
2023-11-09T13:20:40.826Z,3.28
2023-11-09T13:23:11.544Z,3.50
2023-11-09T13:25:46.061Z,3.08
2023-11-09T13:28:16.846Z,3.10
2023-11-09T13:30:54.382Z,3.40
2023-11-09T13:33:34.396Z,3.22
2023-11-09T13:36:10.502Z,3.88
2023-11-09T13:38:51.085Z,3.40
2023-11-09T13:41:19.696Z,3.47
2023-11-09T13:44:00.224Z,3.58
2023-11-09T13:46:39.378Z,3.88
2023-11-09T13:49:29.300Z,3.45
2023-11-09T13:52:00.602Z,3.90
2023-11-09T13:54:39.964Z,4.22
2023-11-09T13:57:12.260Z,4.45
2023-11-09T13:59:44.590Z,3.80
2023-11-09T14:02:18.978Z,4.32
2023-11-09T14:04:55.093Z,3.58
2023-11-09T14:07:33.597Z,3.75
2023-11-09T14:10:05.999Z,3.70
2023-11-09T14:12:47.639Z,3.83
2023-11-09T14:15:28.777Z,3.58
2023-11-09T14:18:12.729Z,3.88
2023-11-09T14:20:52.961Z,3.95
2023-11-09T14:23:21.664Z,4.25
2023-11-09T14:25:48.857Z,4.13
2023-11-09T14:28:16.151Z,4.60
2023-11-09T14:30:48.559Z,4.70
2023-11-09T14:33:20.139Z,4.43
2023-11-09T14:35:47.383Z,3.80
2023-11-09T14:38:14.648Z,4.20
2023-11-09T14:40:48.410Z,4.13
2023-11-09T14:43:16.726Z,4.57
2023-11-09T14:45:50.099Z,3.75
2023-11-09T14:48:19.463Z,4.15
2023-11-09T14:50:47.079Z,3.97
2023-11-09T14:53:26.396Z,4.22
2023-11-09T14:56:01.349Z,3.80
2023-11-09T14:58:32.998Z,4.05
2023-11-09T15:01:02.702Z,3.92
2023-11-09T15:03:33.205Z,3.72
2023-11-09T15:06:12.940Z,3.70
2023-11-09T15:08:41.151Z,4.28
2023-11-09T15:11:11.832Z,3.60
2023-11-09T15:13:39.412Z,3.53
2023-11-09T15:16:09.587Z,3.67
2023-11-09T15:18:36.921Z,3.50
2023-11-09T15:21:05.769Z,4.00
2023-11-09T15:23:34.305Z,3.70
2023-11-09T15:26:02.399Z,3.85
2023-11-09T15:28:29.884Z,3.72
2023-11-09T15:30:57.257Z,3.97
2023-11-09T15:33:24.309Z,3.88
2023-11-09T15:35:52.131Z,3.65
2023-11-09T15:38:19.401Z,3.47
2023-11-09T15:41:16.246Z,4.05
2023-11-09T15:43:39.269Z,3.67
2023-11-09T15:46:13.103Z,3.88
2023-11-09T15:48:41.777Z,3.92
2023-11-09T15:51:09.861Z,3.92
2023-11-09T15:53:38.934Z,4.15
2023-11-09T15:56:06.812Z,4.00
2023-11-09T15:58:34.481Z,3.97
2023-11-09T16:01:03.424Z,3.88
2023-11-09T16:03:32.476Z,3.75
2023-11-09T16:05:59.761Z,3.90
2023-11-09T16:08:26.827Z,4.03
2023-11-09T16:10:54.242Z,4.07
2023-11-09T16:13:21.909Z,3.55
2023-11-09T16:15:49.951Z,3.95
2023-11-09T16:18:17.157Z,3.65
2023-11-09T16:20:44.309Z,3.92
2023-11-09T16:23:12.665Z,3.80
2023-11-09T16:25:44.962Z,3.70
2023-11-09T16:28:13.873Z,3.50
2023-11-09T16:30:42.132Z,4.13
2023-11-09T16:33:09.928Z,4.18
2023-11-09T16:35:37.568Z,4.10
2023-11-09T16:38:05.566Z,3.28
2023-11-09T16:40:35.310Z,3.67
2023-11-09T16:43:02.922Z,3.28
2023-11-09T16:45:30.213Z,3.50
2023-11-09T16:47:58.418Z,3.65
2023-11-09T16:50:25.447Z,3.38
2023-11-09T16:52:52.619Z,3.45
2023-11-09T16:55:19.747Z,3.78
2023-11-09T16:57:46.928Z,3.72
2023-11-09T17:00:18.973Z,3.47
2023-11-09T17:02:47.714Z,3.58
2023-11-09T17:05:16.526Z,3.90
2023-11-09T17:07:46.768Z,3.40
2023-11-09T17:10:15.718Z,3.90
2023-11-09T17:12:43.874Z,4.10
2023-11-09T17:15:13.190Z,3.42
2023-11-09T17:17:42.726Z,3.47
2023-11-09T17:20:13.280Z,3.88
2023-11-09T17:22:45.708Z,4.70
2023-11-09T17:25:14.625Z,3.65
2023-11-09T17:27:43.676Z,3.60
2023-11-09T17:30:12.448Z,3.65
2023-11-09T17:32:40.992Z,4.05
2023-11-09T17:35:09.889Z,3.70
2023-11-09T17:37:38.788Z,3.78
2023-11-09T17:40:12.551Z,3.90
2023-11-09T17:42:40.791Z,3.80
2023-11-09T17:45:09.014Z,3.33
2023-11-09T17:47:39.257Z,4.00
2023-11-09T17:50:09.627Z,3.38
2023-11-09T17:52:38.400Z,2.95
2023-11-09T17:55:07.048Z,3.00
2023-11-09T17:57:34.586Z,3.55
2023-11-09T18:00:02.371Z,3.88
2023-11-09T18:02:32.388Z,3.85
2023-11-09T18:04:59.996Z,4.13
2023-11-09T18:07:27.063Z,3.28
2023-11-09T18:09:54.307Z,1.90
2023-11-09T18:12:21.844Z,1.70
2023-11-09T18:14:49.002Z,1.30
2023-11-09T18:17:17.338Z,1.23
2023-11-09T18:19:46.230Z,2.13
2023-11-09T18:22:13.384Z,1.50
2023-11-09T18:24:40.453Z,1.30
2023-11-09T18:27:07.490Z,1.20
2023-11-09T18:29:34.619Z,1.00
2023-11-09T18:32:04.488Z,0.90
2023-11-09T18:34:32.142Z,1.10
2023-11-09T18:36:59.442Z,1.33
2023-11-09T18:39:27.877Z,1.55
2023-11-09T18:41:55.591Z,2.08
2023-11-09T18:44:23.861Z,2.50
2023-11-09T18:46:51.361Z,2.55
2023-11-09T18:51:49.004Z,2.55
2023-11-09T18:54:16.147Z,2.80
2023-11-09T18:56:43.805Z,2.95
2023-11-09T18:59:11.195Z,2.85
2023-11-09T19:01:40.182Z,2.95
2023-11-09T19:06:39.543Z,3.30
2023-11-09T19:09:07.034Z,3.53
2023-11-09T19:11:34.450Z,3.00
2023-11-09T19:14:02.603Z,2.92
2023-11-09T19:16:29.923Z,2.72
2023-11-09T19:18:57.180Z,2.30
2023-11-09T19:23:54.643Z,2.17
2023-11-09T19:26:21.886Z,2.30
2023-11-09T19:28:49.672Z,2.10
2023-11-09T19:31:18.316Z,1.60
2023-11-09T19:33:45.561Z,1.20
2023-11-09T19:36:12.680Z,1.63
2023-11-09T19:38:41.298Z,1.58
2023-11-09T19:41:08.701Z,1.48
2023-11-09T19:43:36.847Z,1.08
2023-11-09T19:46:04.213Z,1.30
2023-11-09T19:48:31.241Z,1.00
2023-11-09T19:50:58.359Z,1.20
2023-11-09T19:53:25.601Z,1.30
2023-11-09T19:55:52.734Z,1.13
2023-11-09T19:58:19.806Z,1.08
2023-11-09T20:00:48.293Z,1.20
2023-11-09T20:03:15.637Z,1.13
2023-11-09T20:05:42.927Z,1.15
2023-11-09T20:08:10.995Z,1.02
2023-11-09T20:10:38.186Z,1.05
2023-11-09T20:13:05.667Z,1.20
2023-11-09T20:15:33.269Z,1.10
2023-11-09T20:18:02.529Z,1.20
2023-11-09T20:20:30.211Z,1.10
2023-11-09T20:22:58.358Z,1.27
2023-11-09T20:25:26.504Z,1.23
2023-11-09T20:27:55.734Z,1.23
2023-11-09T20:30:23.443Z,1.40
2023-11-09T20:32:51.350Z,1.30
2023-11-09T20:35:18.991Z,1.10
2023-11-09T20:37:46.568Z,1.33
2023-11-09T20:40:17.939Z,1.33
2023-11-09T20:42:45.950Z,1.30
2023-11-09T20:45:14.429Z,1.30
2023-11-09T20:47:42.656Z,1.45
2023-11-09T20:50:16.313Z,1.40
2023-11-09T20:52:50.412Z,1.40
2023-11-09T20:55:20.634Z,1.55
2023-11-09T20:57:50.342Z,1.80
2023-11-09T21:00:22.193Z,1.75
2023-11-09T21:02:51.564Z,1.92
2023-11-09T21:05:18.888Z,2.00
2023-11-09T21:07:46.064Z,2.20
2023-11-09T21:10:13.282Z,2.00
2023-11-09T21:12:42.978Z,2.30
2023-11-09T21:15:12.284Z,2.38
2023-11-09T21:17:43.570Z,2.22
2023-11-09T21:20:13.547Z,2.03
2023-11-09T21:22:40.694Z,2.28
2023-11-09T21:25:08.569Z,2.10
2023-11-09T21:27:36.111Z,2.00
2023-11-09T21:30:03.766Z,2.15
2023-11-09T21:32:30.930Z,2.17
2023-11-09T21:34:58.037Z,2.00
2023-11-09T21:37:26.932Z,2.03
2023-11-09T21:39:53.936Z,2.10
2023-11-09T21:42:21.167Z,2.13
2023-11-09T21:44:49.804Z,2.05
2023-11-09T21:47:19.967Z,2.05
2023-11-09T21:49:48.438Z,2.03
2023-11-09T21:52:15.663Z,2.20
2023-11-09T21:54:43.015Z,2.40
2023-11-09T21:57:14.141Z,2.50
2023-11-09T21:59:41.987Z,2.90
2023-11-09T22:02:09.750Z,3.00
2023-11-09T22:04:39.005Z,3.10
2023-11-09T22:07:06.603Z,3.13
2023-11-09T22:09:34.542Z,3.58
2023-11-09T22:12:02.715Z,3.72
2023-11-09T22:14:30.452Z,3.85
2023-11-09T22:16:58.906Z,3.80
2023-11-09T22:19:26.447Z,4.00
2023-11-09T22:21:53.605Z,3.97
2023-11-09T22:24:20.716Z,4.40
2023-11-09T22:26:48.757Z,4.95
2023-11-09T22:29:16.415Z,5.07
2023-11-09T22:31:43.598Z,4.95
2023-11-09T22:34:10.816Z,5.10
2023-11-09T22:36:38.156Z,5.75
2023-11-09T22:39:06.632Z,6.30
2023-11-09T22:41:33.774Z,6.53
2023-11-09T22:44:01.199Z,6.90
2023-11-09T22:46:28.462Z,6.63
2023-11-09T22:48:55.697Z,6.53
2023-11-09T22:51:23.257Z,7.47
2023-11-09T22:53:51.436Z,7.20
2023-11-09T22:56:18.635Z,7.45
2023-11-09T22:58:46.625Z,7.57
2023-11-09T23:01:13.736Z,7.97
2023-11-09T23:03:42.497Z,8.15
2023-11-09T23:06:12.747Z,7.82
2023-11-09T23:08:40.028Z,8.40
2023-11-09T23:11:07.019Z,8.60
2023-11-09T23:13:34.114Z,8.23
2023-11-09T23:16:01.250Z,8.52
2023-11-09T23:18:32.121Z,8.23
2023-11-09T23:20:59.577Z,8.57
2023-11-09T23:23:28.805Z,8.55
2023-11-09T23:25:55.860Z,8.35
2023-11-09T23:28:24.855Z,8.68
2023-11-09T23:30:51.977Z,9.43
2023-11-09T23:33:21.835Z,8.95
2023-11-09T23:35:50.034Z,9.18
2023-11-09T23:38:18.009Z,8.88
2023-11-09T23:40:45.615Z,8.48
2023-11-09T23:43:12.785Z,9.60
2023-11-09T23:45:39.886Z,8.95
2023-11-09T23:48:12.480Z,9.57
2023-11-09T23:50:41.683Z,9.15
2023-11-09T23:53:09.026Z,8.90
2023-11-09T23:55:36.246Z,9.30
2023-11-09T23:58:04.318Z,9.35
